Brummen, Netherlands
Current Conditions -  °F | °C
As of 9:25 AM on Sunday 23 Nov 2014 (Local Time) from EHDL Reporting Station
Haze Haze  
Wind Chill: 45°   Ceiling: Unl
Heat Index: 48°   Visibility: 6mi
Dew Point: 46°   Wind: 8mph
Humidity: 93%   Direction: 140°SE
Pressure: 30.03"   Gusts: NA
Location:  52.09°N, 6.16°E
Report Text: EHDL 230825Z AUTO 14007KT 9000 BR FEW085 09/08 Q1017 BLU
Loading
Personal Weather Stations






























Interactive Weather Map New forecast layout! Learn more

10-Day Weather Forecast

Advertisements
Track Severe Weather on mobile